sensor_id;sensor_type;location;lat;lon;timestamp;P1;durP1;ratioP1;P2;durP2;ratioP2
37857;SDS011;23695;55.868;37.472;2022-12-05T00:01:10;8.07;;;3.53;;
37857;SDS011;23695;55.868;37.472;2022-12-05T00:03:47;9.20;;;3.47;;
37857;SDS011;23695;55.868;37.472;2022-12-05T00:06:16;9.50;;;3.28;;
37857;SDS011;23695;55.868;37.472;2022-12-05T00:08:43;7.32;;;3.50;;
37857;SDS011;23695;55.868;37.472;2022-12-05T00:11:15;6.53;;;3.53;;
37857;SDS011;23695;55.868;37.472;2022-12-05T00:13:44;5.30;;;3.28;;
37857;SDS011;23695;55.868;37.472;2022-12-05T00:16:12;9.63;;;2.90;;
37857;SDS011;23695;55.868;37.472;2022-12-05T00:18:42;5.65;;;3.40;;
37857;SDS011;23695;55.868;37.472;2022-12-05T00:21:14;4.88;;;3.58;;
37857;SDS011;23695;55.868;37.472;2022-12-05T00:23:43;6.18;;;2.95;;
37857;SDS011;23695;55.868;37.472;2022-12-05T00:26:10;6.53;;;2.90;;
37857;SDS011;23695;55.868;37.472;2022-12-05T00:28:38;10.80;;;3.10;;
37857;SDS011;23695;55.868;37.472;2022-12-05T00:31:08;4.75;;;3.22;;
37857;SDS011;23695;55.868;37.472;2022-12-05T00:33:40;7.18;;;3.55;;
37857;SDS011;23695;55.868;37.472;2022-12-05T00:36:08;4.97;;;2.83;;
37857;SDS011;23695;55.868;37.472;2022-12-05T00:38:37;5.43;;;3.05;;
37857;SDS011;23695;55.868;37.472;2022-12-05T00:41:08;4.43;;;3.08;;
37857;SDS011;23695;55.868;37.472;2022-12-05T00:43:36;5.03;;;2.65;;
37857;SDS011;23695;55.868;37.472;2022-12-05T00:46:03;6.40;;;3.17;;
37857;SDS011;23695;55.868;37.472;2022-12-05T00:48:34;5.00;;;3.03;;
37857;SDS011;23695;55.868;37.472;2022-12-05T00:51:02;5.88;;;3.17;;
37857;SDS011;23695;55.868;37.472;2022-12-05T00:53:50;4.35;;;2.83;;
37857;SDS011;23695;55.868;37.472;2022-12-05T00:56:18;7.30;;;2.72;;
37857;SDS011;23695;55.868;37.472;2022-12-05T00:58:46;6.32;;;3.00;;
37857;SDS011;23695;55.868;37.472;2022-12-05T01:01:15;5.30;;;2.97;;
37857;SDS011;23695;55.868;37.472;2022-12-05T01:03:53;5.15;;;3.00;;
37857;SDS011;23695;55.868;37.472;2022-12-05T01:06:22;5.57;;;3.50;;
37857;SDS011;23695;55.868;37.472;2022-12-05T01:08:51;7.50;;;3.20;;
37857;SDS011;23695;55.868;37.472;2022-12-05T01:11:18;6.20;;;3.05;;
37857;SDS011;23695;55.868;37.472;2022-12-05T01:13:47;5.30;;;3.25;;
37857;SDS011;23695;55.868;37.472;2022-12-05T01:16:15;5.03;;;3.30;;
37857;SDS011;23695;55.868;37.472;2022-12-05T01:18:44;5.50;;;3.30;;
37857;SDS011;23695;55.868;37.472;2022-12-05T01:21:12;9.55;;;3.17;;
37857;SDS011;23695;55.868;37.472;2022-12-05T01:23:39;5.63;;;3.20;;
37857;SDS011;23695;55.868;37.472;2022-12-05T01:26:07;6.30;;;3.17;;
37857;SDS011;23695;55.868;37.472;2022-12-05T01:28:37;4.72;;;3.28;;
37857;SDS011;23695;55.868;37.472;2022-12-05T01:31:08;5.63;;;2.70;;
37857;SDS011;23695;55.868;37.472;2022-12-05T01:33:42;6.90;;;2.72;;
37857;SDS011;23695;55.868;37.472;2022-12-05T01:36:09;5.43;;;2.90;;
37857;SDS011;23695;55.868;37.472;2022-12-05T01:38:38;4.80;;;3.05;;
37857;SDS011;23695;55.868;37.472;2022-12-05T01:41:06;5.63;;;3.15;;
37857;SDS011;23695;55.868;37.472;2022-12-05T01:43:51;5.97;;;3.22;;
37857;SDS011;23695;55.868;37.472;2022-12-05T01:46:18;4.55;;;3.00;;
37857;SDS011;23695;55.868;37.472;2022-12-05T01:48:45;5.18;;;3.03;;
37857;SDS011;23695;55.868;37.472;2022-12-05T01:51:12;6.82;;;2.80;;
37857;SDS011;23695;55.868;37.472;2022-12-05T01:53:39;6.70;;;3.45;;
37857;SDS011;23695;55.868;37.472;2022-12-05T01:56:06;5.60;;;3.17;;
37857;SDS011;23695;55.868;37.472;2022-12-05T01:58:35;5.63;;;3.15;;
37857;SDS011;23695;55.868;37.472;2022-12-05T02:01:04;6.70;;;2.70;;
37857;SDS011;23695;55.868;37.472;2022-12-05T02:03:31;4.88;;;2.75;;
37857;SDS011;23695;55.868;37.472;2022-12-05T02:05:57;5.30;;;2.95;;
37857;SDS011;23695;55.868;37.472;2022-12-05T02:08:27;4.82;;;2.85;;
37857;SDS011;23695;55.868;37.472;2022-12-05T02:10:55;6.13;;;2.97;;
37857;SDS011;23695;55.868;37.472;2022-12-05T02:15:59;4.97;;;2.90;;
37857;SDS011;23695;55.868;37.472;2022-12-05T02:21:29;3.58;;;2.40;;
37857;SDS011;23695;55.868;37.472;2022-12-05T02:45:40;9.40;;;2.70;;
37857;SDS011;23695;55.868;37.472;2022-12-05T02:48:11;5.45;;;2.58;;
37857;SDS011;23695;55.868;37.472;2022-12-05T02:50:43;5.05;;;2.60;;
37857;SDS011;23695;55.868;37.472;2022-12-05T02:53:12;5.43;;;2.33;;
37857;SDS011;23695;55.868;37.472;2022-12-05T02:55:42;5.60;;;2.78;;
37857;SDS011;23695;55.868;37.472;2022-12-05T02:58:13;6.97;;;2.80;;
37857;SDS011;23695;55.868;37.472;2022-12-05T03:00:45;4.50;;;2.65;;
37857;SDS011;23695;55.868;37.472;2022-12-05T03:03:16;4.85;;;2.97;;
37857;SDS011;23695;55.868;37.472;2022-12-05T03:08:30;9.05;;;2.67;;
37857;SDS011;23695;55.868;37.472;2022-12-05T03:11:02;3.97;;;2.58;;
37857;SDS011;23695;55.868;37.472;2022-12-05T03:13:31;10.93;;;2.88;;
37857;SDS011;23695;55.868;37.472;2022-12-05T03:16:07;3.42;;;2.47;;
37857;SDS011;23695;55.868;37.472;2022-12-05T03:18:45;4.57;;;2.70;;
37857;SDS011;23695;55.868;37.472;2022-12-05T03:21:18;9.95;;;2.70;;
37857;SDS011;23695;55.868;37.472;2022-12-05T03:24:02;6.82;;;2.95;;
37857;SDS011;23695;55.868;37.472;2022-12-05T03:29:41;3.70;;;2.58;;
37857;SDS011;23695;55.868;37.472;2022-12-05T03:32:24;4.90;;;2.70;;
37857;SDS011;23695;55.868;37.472;2022-12-05T03:40:33;7.30;;;2.65;;
37857;SDS011;23695;55.868;37.472;2022-12-05T03:46:12;7.03;;;2.58;;
37857;SDS011;23695;55.868;37.472;2022-12-05T03:48:50;5.53;;;2.85;;
37857;SDS011;23695;55.868;37.472;2022-12-05T03:51:22;4.72;;;2.75;;
37857;SDS011;23695;55.868;37.472;2022-12-05T03:53:58;3.63;;;2.30;;
37857;SDS011;23695;55.868;37.472;2022-12-05T03:56:47;3.83;;;2.50;;
37857;SDS011;23695;55.868;37.472;2022-12-05T04:01:56;4.63;;;2.60;;
37857;SDS011;23695;55.868;37.472;2022-12-05T04:04:27;8.65;;;3.03;;
37857;SDS011;23695;55.868;37.472;2022-12-05T04:07:02;3.35;;;2.30;;
37857;SDS011;23695;55.868;37.472;2022-12-05T04:09:39;2.97;;;2.50;;
37857;SDS011;23695;55.868;37.472;2022-12-05T04:12:12;4.82;;;2.85;;
37857;SDS011;23695;55.868;37.472;2022-12-05T04:14:43;5.72;;;2.78;;
37857;SDS011;23695;55.868;37.472;2022-12-05T04:20:23;5.88;;;2.30;;
37857;SDS011;23695;55.868;37.472;2022-12-05T04:22:55;4.53;;;2.75;;
37857;SDS011;23695;55.868;37.472;2022-12-05T04:25:22;3.72;;;2.70;;
37857;SDS011;23695;55.868;37.472;2022-12-05T04:36:00;6.90;;;2.92;;
37857;SDS011;23695;55.868;37.472;2022-12-05T04:39:18;5.10;;;2.53;;
37857;SDS011;23695;55.868;37.472;2022-12-05T04:41:27;10.25;;;2.75;;
37857;SDS011;23695;55.868;37.472;2022-12-05T04:44:00;3.97;;;2.60;;
37857;SDS011;23695;55.868;37.472;2022-12-05T04:46:32;4.30;;;2.75;;
37857;SDS011;23695;55.868;37.472;2022-12-05T04:49:01;7.72;;;2.67;;
37857;SDS011;23695;55.868;37.472;2022-12-05T04:51:32;4.57;;;2.63;;
37857;SDS011;23695;55.868;37.472;2022-12-05T04:54:04;5.47;;;2.70;;
37857;SDS011;23695;55.868;37.472;2022-12-05T04:56:38;7.93;;;2.72;;
37857;SDS011;23695;55.868;37.472;2022-12-05T04:59:07;6.13;;;2.80;;
37857;SDS011;23695;55.868;37.472;2022-12-05T05:01:47;5.82;;;2.72;;
37857;SDS011;23695;55.868;37.472;2022-12-05T05:04:25;6.30;;;2.65;;
37857;SDS011;23695;55.868;37.472;2022-12-05T05:06:57;3.40;;;2.38;;
37857;SDS011;23695;55.868;37.472;2022-12-05T05:09:24;7.25;;;2.50;;
37857;SDS011;23695;55.868;37.472;2022-12-05T05:11:50;5.60;;;2.35;;
37857;SDS011;23695;55.868;37.472;2022-12-05T05:14:17;4.80;;;2.53;;
37857;SDS011;23695;55.868;37.472;2022-12-05T05:16:44;4.30;;;2.92;;
37857;SDS011;23695;55.868;37.472;2022-12-05T05:19:11;4.03;;;2.85;;
37857;SDS011;23695;55.868;37.472;2022-12-05T05:21:38;3.83;;;2.22;;
37857;SDS011;23695;55.868;37.472;2022-12-05T05:24:07;4.72;;;2.55;;
37857;SDS011;23695;55.868;37.472;2022-12-05T05:26:37;4.03;;;2.80;;
37857;SDS011;23695;55.868;37.472;2022-12-05T05:29:06;4.25;;;2.58;;
37857;SDS011;23695;55.868;37.472;2022-12-05T05:31:33;4.35;;;2.78;;
37857;SDS011;23695;55.868;37.472;2022-12-05T05:34:01;4.93;;;2.58;;
37857;SDS011;23695;55.868;37.472;2022-12-05T05:36:35;4.55;;;2.60;;
37857;SDS011;23695;55.868;37.472;2022-12-05T05:39:04;3.72;;;2.50;;
37857;SDS011;23695;55.868;37.472;2022-12-05T05:41:32;4.70;;;2.95;;
37857;SDS011;23695;55.868;37.472;2022-12-05T05:44:00;5.05;;;3.00;;
37857;SDS011;23695;55.868;37.472;2022-12-05T05:46:29;5.93;;;2.72;;
37857;SDS011;23695;55.868;37.472;2022-12-05T05:48:57;4.07;;;2.23;;
37857;SDS011;23695;55.868;37.472;2022-12-05T05:51:24;3.50;;;2.38;;
37857;SDS011;23695;55.868;37.472;2022-12-05T05:53:51;3.80;;;2.50;;
37857;SDS011;23695;55.868;37.472;2022-12-05T05:56:18;4.45;;;2.60;;
37857;SDS011;23695;55.868;37.472;2022-12-05T05:58:47;4.15;;;2.63;;
37857;SDS011;23695;55.868;37.472;2022-12-05T06:01:19;5.75;;;2.88;;
37857;SDS011;23695;55.868;37.472;2022-12-05T06:03:46;3.65;;;2.47;;
37857;SDS011;23695;55.868;37.472;2022-12-05T06:06:14;4.53;;;2.50;;
37857;SDS011;23695;55.868;37.472;2022-12-05T06:08:42;3.38;;;2.50;;
37857;SDS011;23695;55.868;37.472;2022-12-05T06:11:14;5.07;;;3.22;;
37857;SDS011;23695;55.868;37.472;2022-12-05T06:13:51;3.92;;;2.50;;
37857;SDS011;23695;55.868;37.472;2022-12-05T06:16:22;5.35;;;2.55;;
37857;SDS011;23695;55.868;37.472;2022-12-05T06:18:50;4.25;;;2.75;;
37857;SDS011;23695;55.868;37.472;2022-12-05T06:21:17;3.95;;;2.67;;
37857;SDS011;23695;55.868;37.472;2022-12-05T06:23:45;5.25;;;2.58;;
37857;SDS011;23695;55.868;37.472;2022-12-05T06:26:12;3.22;;;2.47;;
37857;SDS011;23695;55.868;37.472;2022-12-05T06:28:41;3.92;;;2.67;;
37857;SDS011;23695;55.868;37.472;2022-12-05T06:31:08;6.13;;;3.00;;
37857;SDS011;23695;55.868;37.472;2022-12-05T06:33:37;4.15;;;2.97;;
37857;SDS011;23695;55.868;37.472;2022-12-05T06:36:04;3.95;;;2.88;;
37857;SDS011;23695;55.868;37.472;2022-12-05T06:38:33;3.88;;;2.67;;
37857;SDS011;23695;55.868;37.472;2022-12-05T06:41:07;5.03;;;2.70;;
37857;SDS011;23695;55.868;37.472;2022-12-05T06:43:39;6.03;;;2.70;;
37857;SDS011;23695;55.868;37.472;2022-12-05T06:46:06;3.53;;;2.25;;
37857;SDS011;23695;55.868;37.472;2022-12-05T06:48:34;6.22;;;2.80;;
37857;SDS011;23695;55.868;37.472;2022-12-05T06:51:01;5.32;;;2.67;;
37857;SDS011;23695;55.868;37.472;2022-12-05T06:53:28;5.07;;;2.58;;
37857;SDS011;23695;55.868;37.472;2022-12-05T06:55:58;2.85;;;2.30;;
37857;SDS011;23695;55.868;37.472;2022-12-05T06:58:26;4.60;;;2.97;;
37857;SDS011;23695;55.868;37.472;2022-12-05T07:00:53;4.40;;;2.80;;
37857;SDS011;23695;55.868;37.472;2022-12-05T07:03:20;5.70;;;3.25;;
37857;SDS011;23695;55.868;37.472;2022-12-05T07:05:47;6.60;;;3.10;;
37857;SDS011;23695;55.868;37.472;2022-12-05T07:08:14;4.32;;;2.83;;
37857;SDS011;23695;55.868;37.472;2022-12-05T07:10:41;4.43;;;2.95;;
37857;SDS011;23695;55.868;37.472;2022-12-05T07:13:07;6.78;;;3.17;;
37857;SDS011;23695;55.868;37.472;2022-12-05T07:15:40;3.95;;;2.65;;
37857;SDS011;23695;55.868;37.472;2022-12-05T07:18:07;4.63;;;2.67;;
37857;SDS011;23695;55.868;37.472;2022-12-05T07:20:34;5.78;;;3.08;;
37857;SDS011;23695;55.868;37.472;2022-12-05T07:23:20;5.10;;;3.08;;
37857;SDS011;23695;55.868;37.472;2022-12-05T07:25:47;4.50;;;3.13;;
37857;SDS011;23695;55.868;37.472;2022-12-05T07:28:14;6.13;;;3.03;;
37857;SDS011;23695;55.868;37.472;2022-12-05T07:30:40;4.32;;;3.00;;
37857;SDS011;23695;55.868;37.472;2022-12-05T07:33:07;4.57;;;3.08;;
37857;SDS011;23695;55.868;37.472;2022-12-05T07:35:34;4.32;;;2.90;;
37857;SDS011;23695;55.868;37.472;2022-12-05T07:38:00;6.72;;;3.13;;
37857;SDS011;23695;55.868;37.472;2022-12-05T07:40:27;4.47;;;3.05;;
37857;SDS011;23695;55.868;37.472;2022-12-05T07:42:54;4.15;;;2.97;;
37857;SDS011;23695;55.868;37.472;2022-12-05T07:45:21;8.48;;;3.33;;
37857;SDS011;23695;55.868;37.472;2022-12-05T07:47:47;7.78;;;2.72;;
37857;SDS011;23695;55.868;37.472;2022-12-05T07:50:14;4.85;;;2.70;;
37857;SDS011;23695;55.868;37.472;2022-12-05T07:52:41;7.32;;;3.45;;
37857;SDS011;23695;55.868;37.472;2022-12-05T07:55:08;6.13;;;3.05;;
37857;SDS011;23695;55.868;37.472;2022-12-05T07:57:34;3.97;;;2.78;;
37857;SDS011;23695;55.868;37.472;2022-12-05T08:00:01;6.07;;;3.67;;
37857;SDS011;23695;55.868;37.472;2022-12-05T08:02:29;5.78;;;3.42;;
37857;SDS011;23695;55.868;37.472;2022-12-05T08:04:55;4.55;;;3.15;;
37857;SDS011;23695;55.868;37.472;2022-12-05T08:07:22;5.13;;;3.50;;
37857;SDS011;23695;55.868;37.472;2022-12-05T08:09:49;5.35;;;3.25;;
37857;SDS011;23695;55.868;37.472;2022-12-05T08:12:16;5.93;;;3.10;;
37857;SDS011;23695;55.868;37.472;2022-12-05T08:14:42;7.68;;;3.17;;
37857;SDS011;23695;55.868;37.472;2022-12-05T08:17:09;5.13;;;3.38;;
37857;SDS011;23695;55.868;37.472;2022-12-05T08:19:36;5.63;;;3.45;;
37857;SDS011;23695;55.868;37.472;2022-12-05T08:22:03;5.00;;;3.15;;
37857;SDS011;23695;55.868;37.472;2022-12-05T08:24:29;5.55;;;3.30;;
37857;SDS011;23695;55.868;37.472;2022-12-05T08:26:56;7.45;;;4.05;;
37857;SDS011;23695;55.868;37.472;2022-12-05T08:29:23;5.07;;;2.97;;
37857;SDS011;23695;55.868;37.472;2022-12-05T08:31:50;6.30;;;3.55;;
37857;SDS011;23695;55.868;37.472;2022-12-05T08:34:18;6.07;;;3.40;;
37857;SDS011;23695;55.868;37.472;2022-12-05T08:36:45;4.90;;;3.08;;
37857;SDS011;23695;55.868;37.472;2022-12-05T08:39:13;6.38;;;3.15;;
37857;SDS011;23695;55.868;37.472;2022-12-05T08:41:42;4.80;;;3.20;;
37857;SDS011;23695;55.868;37.472;2022-12-05T08:44:10;8.35;;;3.50;;
37857;SDS011;23695;55.868;37.472;2022-12-05T08:46:37;6.53;;;3.40;;
37857;SDS011;23695;55.868;37.472;2022-12-05T08:49:04;7.03;;;3.00;;
37857;SDS011;23695;55.868;37.472;2022-12-05T08:51:31;5.68;;;3.50;;
37857;SDS011;23695;55.868;37.472;2022-12-05T08:53:58;6.45;;;3.58;;
37857;SDS011;23695;55.868;37.472;2022-12-05T08:56:27;5.78;;;3.92;;
37857;SDS011;23695;55.868;37.472;2022-12-05T08:58:54;4.95;;;3.30;;
37857;SDS011;23695;55.868;37.472;2022-12-05T09:01:31;7.78;;;3.70;;
37857;SDS011;23695;55.868;37.472;2022-12-05T09:03:59;5.13;;;3.28;;
37857;SDS011;23695;55.868;37.472;2022-12-05T09:06:27;6.82;;;3.50;;
37857;SDS011;23695;55.868;37.472;2022-12-05T09:08:55;4.00;;;3.05;;
37857;SDS011;23695;55.868;37.472;2022-12-05T09:11:27;4.90;;;3.15;;
37857;SDS011;23695;55.868;37.472;2022-12-05T09:13:55;6.03;;;3.30;;
37857;SDS011;23695;55.868;37.472;2022-12-05T09:16:24;6.55;;;3.03;;
37857;SDS011;23695;55.868;37.472;2022-12-05T09:19:00;5.15;;;3.00;;
37857;SDS011;23695;55.868;37.472;2022-12-05T09:21:28;5.15;;;3.60;;
37857;SDS011;23695;55.868;37.472;2022-12-05T09:23:59;7.30;;;3.45;;
37857;SDS011;23695;55.868;37.472;2022-12-05T09:28:54;4.88;;;3.25;;
37857;SDS011;23695;55.868;37.472;2022-12-05T09:31:22;5.68;;;3.70;;
37857;SDS011;23695;55.868;37.472;2022-12-05T09:33:50;6.55;;;3.38;;
37857;SDS011;23695;55.868;37.472;2022-12-05T09:36:25;6.93;;;3.50;;
37857;SDS011;23695;55.868;37.472;2022-12-05T09:38:54;6.13;;;3.80;;
37857;SDS011;23695;55.868;37.472;2022-12-05T09:44:24;6.30;;;3.30;;
37857;SDS011;23695;55.868;37.472;2022-12-05T09:47:03;5.90;;;3.47;;
37857;SDS011;23695;55.868;37.472;2022-12-05T09:49:39;8.60;;;3.67;;
37857;SDS011;23695;55.868;37.472;2022-12-05T09:52:34;6.53;;;3.42;;
37857;SDS011;23695;55.868;37.472;2022-12-05T09:55:05;5.60;;;3.30;;
37857;SDS011;23695;55.868;37.472;2022-12-05T09:57:44;4.90;;;3.30;;
37857;SDS011;23695;55.868;37.472;2022-12-05T10:00:19;4.43;;;3.28;;
37857;SDS011;23695;55.868;37.472;2022-12-05T10:11:01;4.97;;;3.05;;
37857;SDS011;23695;55.868;37.472;2022-12-05T10:16:37;7.07;;;3.13;;
37857;SDS011;23695;55.868;37.472;2022-12-05T10:19:15;5.78;;;3.05;;
37857;SDS011;23695;55.868;37.472;2022-12-05T10:24:55;4.72;;;2.90;;
37857;SDS011;23695;55.868;37.472;2022-12-05T10:27:37;7.50;;;3.10;;
37857;SDS011;23695;55.868;37.472;2022-12-05T10:32:53;6.22;;;3.30;;
37857;SDS011;23695;55.868;37.472;2022-12-05T10:35:21;4.72;;;3.03;;
37857;SDS011;23695;55.868;37.472;2022-12-05T10:37:51;5.95;;;3.15;;
37857;SDS011;23695;55.868;37.472;2022-12-05T10:40:19;6.22;;;3.65;;
37857;SDS011;23695;55.868;37.472;2022-12-05T10:42:47;4.07;;;3.00;;
37857;SDS011;23695;55.868;37.472;2022-12-05T10:45:19;5.82;;;3.20;;
37857;SDS011;23695;55.868;37.472;2022-12-05T10:47:48;4.97;;;3.10;;
37857;SDS011;23695;55.868;37.472;2022-12-05T10:50:22;6.57;;;3.20;;
37857;SDS011;23695;55.868;37.472;2022-12-05T10:52:58;10.43;;;3.65;;
37857;SDS011;23695;55.868;37.472;2022-12-05T10:55:35;9.35;;;3.75;;
37857;SDS011;23695;55.868;37.472;2022-12-05T11:00:43;11.50;;;4.38;;
37857;SDS011;23695;55.868;37.472;2022-12-05T11:03:36;12.23;;;4.22;;
37857;SDS011;23695;55.868;37.472;2022-12-05T11:06:16;9.25;;;4.20;;
37857;SDS011;23695;55.868;37.472;2022-12-05T11:08:51;10.43;;;3.88;;
37857;SDS011;23695;55.868;37.472;2022-12-05T11:11:32;6.70;;;3.50;;
37857;SDS011;23695;55.868;37.472;2022-12-05T11:14:00;11.20;;;3.83;;
37857;SDS011;23695;55.868;37.472;2022-12-05T11:16:31;9.55;;;3.08;;
37857;SDS011;23695;55.868;37.472;2022-12-05T11:19:34;8.90;;;3.65;;
37857;SDS011;23695;55.868;37.472;2022-12-05T11:22:04;5.10;;;3.20;;
37857;SDS011;23695;55.868;37.472;2022-12-05T11:24:32;11.90;;;3.50;;
37857;SDS011;23695;55.868;37.472;2022-12-05T11:29:44;6.40;;;3.22;;
37857;SDS011;23695;55.868;37.472;2022-12-05T11:32:43;5.13;;;3.00;;
37857;SDS011;23695;55.868;37.472;2022-12-05T11:37:42;6.00;;;3.72;;
37857;SDS011;23695;55.868;37.472;2022-12-05T11:40:26;8.77;;;3.92;;
37857;SDS011;23695;55.868;37.472;2022-12-05T11:48:58;7.43;;;3.10;;
37857;SDS011;23695;55.868;37.472;2022-12-05T11:54:14;9.48;;;3.92;;
37857;SDS011;23695;55.868;37.472;2022-12-05T12:05:17;7.95;;;3.55;;
37857;SDS011;23695;55.868;37.472;2022-12-05T12:07:57;6.68;;;3.22;;
37857;SDS011;23695;55.868;37.472;2022-12-05T12:13:25;6.80;;;3.63;;
37857;SDS011;23695;55.868;37.472;2022-12-05T12:19:05;13.15;;;3.38;;
37857;SDS011;23695;55.868;37.472;2022-12-05T12:27:08;5.78;;;3.45;;
37857;SDS011;23695;55.868;37.472;2022-12-05T12:29:55;8.30;;;3.42;;
37857;SDS011;23695;55.868;37.472;2022-12-05T12:38:16;5.75;;;3.35;;
37857;SDS011;23695;55.868;37.472;2022-12-05T12:41:25;7.55;;;3.00;;
37857;SDS011;23695;55.868;37.472;2022-12-05T12:44:13;6.25;;;3.05;;
37857;SDS011;23695;55.868;37.472;2022-12-05T12:47:03;4.50;;;3.03;;
37857;SDS011;23695;55.868;37.472;2022-12-05T12:52:12;4.75;;;2.83;;
37857;SDS011;23695;55.868;37.472;2022-12-05T12:57:52;12.32;;;3.60;;
37857;SDS011;23695;55.868;37.472;2022-12-05T13:03:05;6.43;;;3.22;;
37857;SDS011;23695;55.868;37.472;2022-12-05T13:11:33;4.25;;;2.95;;
37857;SDS011;23695;55.868;37.472;2022-12-05T13:14:08;6.00;;;3.38;;
37857;SDS011;23695;55.868;37.472;2022-12-05T13:16:39;9.00;;;3.67;;
37857;SDS011;23695;55.868;37.472;2022-12-05T13:21:54;6.43;;;3.40;;
37857;SDS011;23695;55.868;37.472;2022-12-05T13:24:26;8.47;;;3.43;;
37857;SDS011;23695;55.868;37.472;2022-12-05T13:26:58;6.70;;;3.92;;
37857;SDS011;23695;55.868;37.472;2022-12-05T13:29:38;8.02;;;3.70;;
37857;SDS011;23695;55.868;37.472;2022-12-05T13:35:00;9.65;;;3.75;;
37857;SDS011;23695;55.868;37.472;2022-12-05T13:37:49;13.32;;;3.92;;
37857;SDS011;23695;55.868;37.472;2022-12-05T13:40:24;9.07;;;3.72;;
37857;SDS011;23695;55.868;37.472;2022-12-05T13:42:59;7.32;;;4.60;;
37857;SDS011;23695;55.868;37.472;2022-12-05T13:45:28;9.38;;;3.80;;
37857;SDS011;23695;55.868;37.472;2022-12-05T13:58:56;11.13;;;4.45;;
37857;SDS011;23695;55.868;37.472;2022-12-05T14:09:03;9.70;;;3.80;;
37857;SDS011;23695;55.868;37.472;2022-12-05T14:17:23;7.82;;;3.50;;
37857;SDS011;23695;55.868;37.472;2022-12-05T14:19:56;8.05;;;3.97;;
37857;SDS011;23695;55.868;37.472;2022-12-05T14:22:36;7.07;;;3.72;;
37857;SDS011;23695;55.868;37.472;2022-12-05T14:28:01;10.10;;;3.80;;
37857;SDS011;23695;55.868;37.472;2022-12-05T14:33:33;9.13;;;4.10;;
37857;SDS011;23695;55.868;37.472;2022-12-05T14:36:04;9.13;;;3.95;;
37857;SDS011;23695;55.868;37.472;2022-12-05T14:38:34;10.25;;;4.70;;
37857;SDS011;23695;55.868;37.472;2022-12-05T14:41:15;7.88;;;3.92;;
37857;SDS011;23695;55.868;37.472;2022-12-05T14:43:54;10.15;;;4.47;;
37857;SDS011;23695;55.868;37.472;2022-12-05T14:46:26;11.43;;;4.25;;
37857;SDS011;23695;55.868;37.472;2022-12-05T14:48:56;8.20;;;3.65;;
37857;SDS011;23695;55.868;37.472;2022-12-05T14:54:17;5.93;;;3.97;;
37857;SDS011;23695;55.868;37.472;2022-12-05T14:56:45;6.40;;;3.30;;
37857;SDS011;23695;55.868;37.472;2022-12-05T15:01:56;7.68;;;3.50;;
37857;SDS011;23695;55.868;37.472;2022-12-05T15:04:35;8.45;;;3.58;;
37857;SDS011;23695;55.868;37.472;2022-12-05T15:07:08;8.40;;;4.78;;
37857;SDS011;23695;55.868;37.472;2022-12-05T15:10:05;8.90;;;3.90;;
37857;SDS011;23695;55.868;37.472;2022-12-05T15:12:40;5.45;;;3.30;;
37857;SDS011;23695;55.868;37.472;2022-12-05T15:17:44;6.40;;;3.25;;
37857;SDS011;23695;55.868;37.472;2022-12-05T15:20:37;8.90;;;3.88;;
37857;SDS011;23695;55.868;37.472;2022-12-05T15:31:35;6.37;;;3.83;;
37857;SDS011;23695;55.868;37.472;2022-12-05T15:34:24;8.02;;;3.85;;
37857;SDS011;23695;55.868;37.472;2022-12-05T15:47:35;10.05;;;3.75;;
37857;SDS011;23695;55.868;37.472;2022-12-05T15:50:02;8.02;;;3.42;;
37857;SDS011;23695;55.868;37.472;2022-12-05T15:52:35;7.13;;;3.90;;
37857;SDS011;23695;55.868;37.472;2022-12-05T15:55:14;9.10;;;3.53;;
37857;SDS011;23695;55.868;37.472;2022-12-05T15:57:47;7.40;;;3.63;;
37857;SDS011;23695;55.868;37.472;2022-12-05T16:00:20;6.20;;;3.80;;
37857;SDS011;23695;55.868;37.472;2022-12-05T16:02:49;5.57;;;3.85;;
37857;SDS011;23695;55.868;37.472;2022-12-05T16:05:28;7.65;;;3.92;;
37857;SDS011;23695;55.868;37.472;2022-12-05T16:08:00;8.57;;;4.20;;
37857;SDS011;23695;55.868;37.472;2022-12-05T16:10:28;5.93;;;3.72;;
37857;SDS011;23695;55.868;37.472;2022-12-05T16:13:01;10.15;;;3.42;;
37857;SDS011;23695;55.868;37.472;2022-12-05T16:15:29;7.95;;;4.05;;
37857;SDS011;23695;55.868;37.472;2022-12-05T16:17:58;7.68;;;3.88;;
37857;SDS011;23695;55.868;37.472;2022-12-05T16:20:34;8.35;;;3.80;;
37857;SDS011;23695;55.868;37.472;2022-12-05T16:23:03;10.23;;;3.45;;
37857;SDS011;23695;55.868;37.472;2022-12-05T16:25:46;8.68;;;4.68;;
37857;SDS011;23695;55.868;37.472;2022-12-05T16:28:14;7.57;;;3.72;;
37857;SDS011;23695;55.868;37.472;2022-12-05T16:30:56;11.40;;;3.30;;
37857;SDS011;23695;55.868;37.472;2022-12-05T16:33:26;8.13;;;3.60;;
37857;SDS011;23695;55.868;37.472;2022-12-05T16:35:54;7.47;;;4.00;;
37857;SDS011;23695;55.868;37.472;2022-12-05T16:38:22;9.88;;;3.47;;
37857;SDS011;23695;55.868;37.472;2022-12-05T16:40:52;6.13;;;3.83;;
37857;SDS011;23695;55.868;37.472;2022-12-05T16:45:57;6.70;;;3.47;;
37857;SDS011;23695;55.868;37.472;2022-12-05T16:48:33;6.15;;;3.38;;
37857;SDS011;23695;55.868;37.472;2022-12-05T16:53:42;6.05;;;3.47;;
37857;SDS011;23695;55.868;37.472;2022-12-05T16:56:11;6.35;;;3.33;;
37857;SDS011;23695;55.868;37.472;2022-12-05T16:59:03;8.38;;;3.17;;
37857;SDS011;23695;55.868;37.472;2022-12-05T17:01:31;7.38;;;3.30;;
37857;SDS011;23695;55.868;37.472;2022-12-05T17:04:04;5.65;;;3.40;;
37857;SDS011;23695;55.868;37.472;2022-12-05T17:06:31;8.52;;;3.25;;
37857;SDS011;23695;55.868;37.472;2022-12-05T17:08:57;7.05;;;3.78;;
37857;SDS011;23695;55.868;37.472;2022-12-05T17:11:25;7.93;;;3.70;;
37857;SDS011;23695;55.868;37.472;2022-12-05T17:13:55;6.00;;;3.20;;
37857;SDS011;23695;55.868;37.472;2022-12-05T17:16:23;5.68;;;3.50;;
37857;SDS011;23695;55.868;37.472;2022-12-05T17:18:51;6.22;;;3.47;;
37857;SDS011;23695;55.868;37.472;2022-12-05T17:21:18;8.10;;;3.53;;
37857;SDS011;23695;55.868;37.472;2022-12-05T17:23:56;7.93;;;3.70;;
37857;SDS011;23695;55.868;37.472;2022-12-05T17:26:23;7.43;;;3.60;;
37857;SDS011;23695;55.868;37.472;2022-12-05T17:28:51;7.85;;;3.70;;
37857;SDS011;23695;55.868;37.472;2022-12-05T17:31:19;6.97;;;3.83;;
37857;SDS011;23695;55.868;37.472;2022-12-05T17:33:48;6.78;;;3.63;;
37857;SDS011;23695;55.868;37.472;2022-12-05T17:36:17;7.80;;;3.58;;
37857;SDS011;23695;55.868;37.472;2022-12-05T17:38:44;6.05;;;3.88;;
37857;SDS011;23695;55.868;37.472;2022-12-05T17:41:18;8.10;;;3.63;;
37857;SDS011;23695;55.868;37.472;2022-12-05T17:43:47;4.95;;;3.35;;
37857;SDS011;23695;55.868;37.472;2022-12-05T17:46:15;6.57;;;3.38;;
37857;SDS011;23695;55.868;37.472;2022-12-05T17:48:45;7.70;;;3.47;;
37857;SDS011;23695;55.868;37.472;2022-12-05T17:51:12;8.20;;;3.47;;
37857;SDS011;23695;55.868;37.472;2022-12-05T17:53:39;9.10;;;3.40;;
37857;SDS011;23695;55.868;37.472;2022-12-05T17:56:07;8.10;;;3.53;;
37857;SDS011;23695;55.868;37.472;2022-12-05T17:58:34;9.02;;;4.03;;
37857;SDS011;23695;55.868;37.472;2022-12-05T18:01:01;9.02;;;3.38;;
37857;SDS011;23695;55.868;37.472;2022-12-05T18:03:28;5.43;;;3.70;;
37857;SDS011;23695;55.868;37.472;2022-12-05T18:05:55;6.57;;;3.78;;
37857;SDS011;23695;55.868;37.472;2022-12-05T18:08:22;7.88;;;3.50;;
37857;SDS011;23695;55.868;37.472;2022-12-05T18:10:49;7.15;;;3.85;;
37857;SDS011;23695;55.868;37.472;2022-12-05T18:13:17;6.35;;;4.25;;
37857;SDS011;23695;55.868;37.472;2022-12-05T18:15:45;6.95;;;3.28;;
37857;SDS011;23695;55.868;37.472;2022-12-05T18:18:13;7.63;;;3.78;;
37857;SDS011;23695;55.868;37.472;2022-12-05T18:20:45;5.88;;;3.20;;